Time;durP1;ratioP1;P1;durP2;ratioP2;P2;SDS_P1;SDS_P2;PMS_P1;PMS_P2;Temp;Humidity;BMP_temperature;BMP_pressure;BME280_temperature;BME280_humidity;BME280_pressure;Samples;Min_cycle;Max_cycle;Signal;HPM_P1;HPM_P2
2020/12/12 00:01:58;;;;;;;25.33;13.27;;;2.60;99.90;;;;;;6254840;22;20046;-89
2020/12/12 00:04:26;;;;;;;24.17;12.47;;;2.60;99.90;;;;;;6255003;22;20008;-89
2020/12/12 00:06:59;;;;;;;23.27;12.90;;;2.60;99.90;;;;;;6254965;22;20003;-88
2020/12/12 00:09:25;;;;;;;21.83;12.27;;;2.70;99.90;;;;;;6267677;22;20012;-90
2020/12/12 00:11:50;;;;;;;21.17;11.70;;;2.70;99.90;;;;;;6257479;22;20364;-88
2020/12/12 00:14:16;;;;;;;23.43;12.20;;;2.70;99.90;;;;;;6280828;22;20326;-89
2020/12/12 00:16:41;;;;;;;19.77;11.07;;;2.80;99.90;;;;;;6253060;22;20034;-88
2020/12/12 00:19:10;;;;;;;22.97;12.10;;;2.80;99.90;;;;;;6253013;22;20011;-88
2020/12/12 00:21:35;;;;;;;23.43;11.97;;;2.80;99.90;;;;;;6252842;22;20011;-88
2020/12/12 00:24:01;;;;;;;16.87;10.50;;;2.80;99.90;;;;;;6254018;22;20071;-88
2020/12/12 00:26:27;;;;;;;20.80;11.10;;;2.80;99.90;;;;;;6252780;22;20026;-88
2020/12/12 00:28:53;;;;;;;19.30;10.70;;;2.90;99.90;;;;;;6253971;22;20335;-88
2020/12/12 00:31:19;;;;;;;21.70;11.60;;;2.90;99.90;;;;;;6253616;22;20000;-90
2020/12/12 00:33:45;;;;;;;19.23;11.03;;;2.90;99.90;;;;;;6252817;22;19999;-88
2020/12/12 00:36:10;;;;;;;19.17;10.90;;;2.90;99.90;;;;;;6253859;22;20003;-88
2020/12/12 00:38:36;;;;;;;19.23;11.00;;;2.90;99.90;;;;;;6252864;22;20008;-88
2020/12/12 00:41:04;;;;;;;20.07;11.40;;;2.90;99.90;;;;;;6254061;22;20178;-88
2020/12/12 00:43:29;;;;;;;21.83;12.47;;;2.90;99.90;;;;;;6252767;22;20405;-88
2020/12/12 00:45:55;;;;;;;22.63;11.97;;;2.90;99.90;;;;;;6252624;22;20023;-88
2020/12/12 00:48:21;;;;;;;21.40;12.03;;;2.90;99.90;;;;;;6252101;22;20004;-88
2020/12/12 00:50:47;;;;;;;17.97;11.17;;;2.90;99.90;;;;;;6252425;22;20457;-89
2020/12/12 00:53:13;;;;;;;19.73;11.10;;;2.90;99.90;;;;;;6252582;22;20035;-89
2020/12/12 00:55:41;;;;;;;19.97;11.10;;;2.90;99.90;;;;;;6252978;22;20041;-89
2020/12/12 00:58:07;;;;;;;20.23;11.10;;;2.90;99.90;;;;;;6252888;22;20095;-90
2020/12/12 01:00:33;;;;;;;21.67;10.67;;;2.90;99.90;;;;;;6252683;22;20065;-88
2020/12/12 01:03:03;;;;;;;22.37;11.20;;;2.90;99.90;;;;;;6252373;22;20008;-88
2020/12/12 01:05:33;;;;;;;22.13;11.03;;;2.90;99.90;;;;;;6253283;22;20000;-90
2020/12/12 01:08:05;;;;;;;21.07;11.43;;;2.90;99.90;;;;;;6253715;22;20082;-88
2020/12/12 01:10:31;;;;;;;20.17;10.02;;;2.90;99.90;;;;;;6253500;22;20008;-88
2020/12/12 01:12:56;;;;;;;21.00;10.70;;;2.90;99.90;;;;;;6253090;22;20007;-88
2020/12/12 01:15:22;;;;;;;21.33;11.37;;;2.90;99.90;;;;;;6253172;22;20438;-88
2020/12/12 01:17:48;;;;;;;19.50;11.40;;;2.80;99.90;;;;;;6252559;22;20003;-89
2020/12/12 01:20:14;;;;;;;22.97;11.20;;;2.90;99.90;;;;;;6252976;22;20065;-88
2020/12/12 01:22:40;;;;;;;20.47;11.00;;;2.90;99.90;;;;;;6251879;22;20477;-88
2020/12/12 01:25:06;;;;;;;20.47;11.70;;;2.80;99.90;;;;;;6252109;22;20085;-89
2020/12/12 01:27:31;;;;;;;18.83;10.70;;;2.90;99.90;;;;;;6252219;22;20039;-88
2020/12/12 01:29:57;;;;;;;16.63;10.40;;;2.90;99.90;;;;;;6280118;22;19996;-88
2020/12/12 01:32:23;;;;;;;18.97;10.57;;;3.00;99.90;;;;;;6252922;22;20008;-88
2020/12/12 01:34:49;;;;;;;18.77;11.03;;;2.90;99.90;;;;;;6280932;22;20000;-89
2020/12/12 01:37:14;;;;;;;21.40;11.30;;;2.90;99.90;;;;;;6252573;22;20033;-88
2020/12/12 01:39:40;;;;;;;19.13;10.47;;;2.90;99.90;;;;;;6253043;22;20425;-88
2020/12/12 01:42:06;;;;;;;17.43;10.43;;;2.90;99.90;;;;;;6253047;22;20010;-88
2020/12/12 01:44:32;;;;;;;21.73;10.50;;;2.90;99.90;;;;;;6253086;22;20004;-87
2020/12/12 01:46:59;;;;;;;18.70;9.57;;;2.90;99.90;;;;;;6255017;22;20007;-88
2020/12/12 01:49:25;;;;;;;18.70;10.20;;;2.90;99.90;;;;;;6255681;22;20445;-88
2020/12/12 01:51:51;;;;;;;16.10;9.13;;;2.90;99.90;;;;;;6253951;22;20000;-89
2020/12/12 01:54:18;;;;;;;18.10;10.03;;;2.90;99.90;;;;;;6253119;22;20007;-88
2020/12/12 01:56:49;;;;;;;17.60;9.73;;;2.90;99.90;;;;;;6252899;22;20011;-88
2020/12/12 01:59:14;;;;;;;21.10;10.73;;;2.80;99.90;;;;;;6253235;22;20004;-90
2020/12/12 02:01:45;;;;;;;19.53;11.00;;;2.80;99.90;;;;;;6253912;22;20014;-88
2020/12/12 02:04:17;;;;;;;18.50;10.67;;;2.80;99.90;;;;;;6254110;22;20007;-89
2020/12/12 02:06:42;;;;;;;17.35;10.18;;;2.80;99.90;;;;;;6253139;22;20003;-88
2020/12/12 02:09:08;;;;;;;18.57;10.27;;;2.70;99.90;;;;;;6252618;22;20004;-88
2020/12/12 02:11:36;;;;;;;19.27;10.57;;;2.70;99.90;;;;;;6252404;22;20007;-89
2020/12/12 02:14:02;;;;;;;19.13;10.23;;;2.60;99.90;;;;;;6261415;22;20334;-88
2020/12/12 02:16:27;;;;;;;18.63;10.87;;;2.70;99.90;;;;;;6285565;22;20000;-89
2020/12/12 02:18:53;;;;;;;16.37;9.60;;;2.60;99.90;;;;;;6256555;22;20391;-89
2020/12/12 02:21:19;;;;;;;16.97;9.37;;;2.60;99.90;;;;;;6255511;22;20004;-88
2020/12/12 02:23:44;;;;;;;17.50;9.50;;;2.60;99.90;;;;;;6255008;22;20010;-88
2020/12/12 02:26:10;;;;;;;17.53;10.17;;;2.70;99.90;;;;;;6252809;22;20008;-89
2020/12/12 02:28:46;;;;;;;19.10;9.83;;;2.60;99.90;;;;;;6251548;22;20006;-89
2020/12/12 02:31:12;;;;;;;16.43;9.20;;;2.60;99.90;;;;;;6253023;22;20471;-88
2020/12/12 02:33:38;;;;;;;16.57;9.70;;;2.60;99.90;;;;;;6251350;22;20000;-88
2020/12/12 02:36:07;;;;;;;16.50;9.40;;;2.70;99.90;;;;;;6251040;22;20003;-88
2020/12/12 02:38:33;;;;;;;17.37;8.83;;;2.70;99.90;;;;;;6250881;22;20472;-88
2020/12/12 02:40:59;;;;;;;17.17;9.57;;;2.70;99.90;;;;;;6252108;22;20011;-88
2020/12/12 02:43:25;;;;;;;16.17;9.07;;;2.60;99.90;;;;;;6253206;22;20369;-88
2020/12/12 02:45:50;;;;;;;17.00;9.50;;;2.60;99.90;;;;;;6253093;22;20087;-88
2020/12/12 02:48:16;;;;;;;17.43;9.47;;;2.60;99.90;;;;;;6253831;22;20019;-88
2020/12/12 02:50:43;;;;;;;16.47;8.90;;;2.60;99.90;;;;;;6253536;22;20026;-88
2020/12/12 02:53:10;;;;;;;16.27;8.93;;;2.60;99.90;;;;;;6255346;22;20004;-89
2020/12/12 02:55:35;;;;;;;15.90;8.87;;;2.70;99.90;;;;;;6254186;22;20004;-88
2020/12/12 02:58:01;;;;;;;15.30;8.77;;;2.70;99.90;;;;;;6255421;22;20099;-88
2020/12/12 03:00:27;;;;;;;14.87;8.63;;;2.70;99.90;;;;;;6268902;22;20004;-88
2020/12/12 03:02:53;;;;;;;16.40;8.90;;;2.70;99.90;;;;;;6263846;22;20019;-88
2020/12/12 03:05:19;;;;;;;15.10;8.53;;;2.70;99.90;;;;;;6267287;22;19992;-88
2020/12/12 03:07:45;;;;;;;15.50;8.97;;;2.80;99.90;;;;;;6276851;22;19992;-90
2020/12/12 03:10:11;;;;;;;16.43;8.90;;;2.80;99.90;;;;;;6261318;22;20019;-88
2020/12/12 03:12:38;;;;;;;17.30;9.20;;;2.80;99.90;;;;;;6252943;22;20007;-87
2020/12/12 03:15:06;;;;;;;15.47;8.63;;;2.80;99.90;;;;;;6252747;22;20011;-88
2020/12/12 03:17:32;;;;;;;15.50;7.93;;;2.80;99.90;;;;;;6254794;22;20006;-88
2020/12/12 03:19:57;;;;;;;15.17;8.33;;;2.80;99.90;;;;;;6255137;22;20000;-88
2020/12/12 03:22:26;;;;;;;13.50;7.33;;;2.90;99.90;;;;;;6254071;22;20043;-88
2020/12/12 03:24:54;;;;;;;12.83;7.20;;;2.90;99.90;;;;;;6253590;22;20385;-88
2020/12/12 03:27:20;;;;;;;12.13;7.07;;;3.00;99.90;;;;;;6253219;22;20431;-88
2020/12/12 03:29:46;;;;;;;10.90;6.00;;;2.90;99.90;;;;;;6253620;22;20000;-88
2020/12/12 03:32:12;;;;;;;11.83;6.03;;;3.00;99.90;;;;;;6252802;22;20000;-88
2020/12/12 03:34:38;;;;;;;12.63;6.47;;;3.00;99.90;;;;;;6253060;22;20003;-89
2020/12/12 03:37:05;;;;;;;13.67;6.90;;;3.00;99.90;;;;;;6254365;22;20008;-88
2020/12/12 03:39:31;;;;;;;12.60;6.63;;;3.10;99.90;;;;;;6252077;22;20004;-88
2020/12/12 03:41:57;;;;;;;13.30;6.27;;;3.10;99.90;;;;;;6251062;22;20081;-90
2020/12/12 03:44:24;;;;;;;11.33;6.37;;;3.10;99.90;;;;;;6222179;23;20192;-93
2020/12/12 03:46:50;;;;;;;11.40;6.93;;;3.10;99.90;;;;;;6215471;22;20015;-94
2020/12/12 03:49:16;;;;;;;11.40;6.60;;;3.20;99.90;;;;;;6210326;22;20012;-95
2020/12/12 03:51:42;;;;;;;11.53;6.67;;;3.10;99.90;;;;;;6217389;22;20008;-93
2020/12/12 03:54:08;;;;;;;11.97;6.80;;;3.10;99.90;;;;;;6217003;22;20012;-93
2020/12/12 03:56:36;;;;;;;11.60;6.87;;;3.10;99.90;;;;;;6217036;22;19993;-92
2020/12/12 03:59:01;;;;;;;12.50;6.50;;;3.20;99.90;;;;;;6216561;22;20012;-91
2020/12/12 04:01:27;;;;;;;11.30;7.00;;;3.10;99.90;;;;;;6217071;22;20117;-93
2020/12/12 04:03:53;;;;;;;12.83;7.40;;;3.10;99.90;;;;;;6216944;22;20016;-92
2020/12/12 04:06:21;;;;;;;12.20;7.30;;;3.10;99.90;;;;;;6216673;22;20012;-94
2020/12/12 04:08:48;;;;;;;14.10;8.27;;;3.10;99.90;;;;;;6216170;22;19989;-92
2020/12/12 04:11:14;;;;;;;13.50;7.47;;;3.10;99.90;;;;;;6217188;22;20110;-93
2020/12/12 04:13:39;;;;;;;12.73;7.33;;;3.10;99.90;;;;;;6216351;22;19984;-92
2020/12/12 04:16:05;;;;;;;13.67;7.60;;;3.10;99.90;;;;;;6216925;22;20020;-93
2020/12/12 04:18:31;;;;;;;12.90;7.17;;;3.10;99.90;;;;;;6216623;22;19989;-94
2020/12/12 04:20:57;;;;;;;12.10;7.10;;;3.10;99.90;;;;;;6216674;22;20015;-92
2020/12/12 04:23:22;;;;;;;14.23;8.10;;;3.10;99.90;;;;;;6216284;22;20020;-94
2020/12/12 04:25:48;;;;;;;13.97;7.50;;;3.10;99.90;;;;;;6216681;22;20016;-92
2020/12/12 04:28:13;;;;;;;15.33;8.17;;;3.10;99.90;;;;;;6216580;22;20035;-93
2020/12/12 04:30:39;;;;;;;11.87;7.03;;;3.10;99.90;;;;;;6216720;22;20000;-94
2020/12/12 04:33:05;;;;;;;11.43;6.87;;;3.10;99.90;;;;;;6216181;22;20000;-93
2020/12/12 04:35:30;;;;;;;11.77;6.47;;;3.10;99.90;;;;;;6216700;22;20000;-92
2020/12/12 04:37:56;;;;;;;12.03;7.07;;;3.10;99.90;;;;;;6216306;22;20048;-93
2020/12/12 04:40:22;;;;;;;11.90;6.97;;;3.20;99.90;;;;;;6215895;22;20016;-93
2020/12/12 04:42:48;;;;;;;10.37;6.80;;;3.20;99.90;;;;;;6216469;22;20022;-94
2020/12/12 04:45:20;;;;;;;10.70;6.90;;;3.10;99.90;;;;;;6216625;22;20032;-94
2020/12/12 04:47:48;;;;;;;11.52;6.80;;;3.10;99.90;;;;;;6216687;22;19992;-94
2020/12/12 04:50:15;;;;;;;12.37;7.30;;;3.10;99.90;;;;;;6215659;22;19992;-95
2020/12/12 04:52:42;;;;;;;13.10;7.83;;;3.10;99.90;;;;;;6216760;22;20007;-96
2020/12/12 04:55:09;;;;;;;12.93;7.33;;;3.10;99.90;;;;;;6216840;22;20011;-96
2020/12/12 04:57:37;;;;;;;13.03;7.83;;;3.10;99.90;;;;;;6216689;22;20005;-95
2020/12/12 05:00:11;;;;;;;15.37;7.83;;;3.10;99.90;;;;;;6216451;22;19993;-95
2020/12/12 05:02:37;;;;;;;15.03;8.43;;;3.10;99.90;;;;;;6210799;22;19988;-95
2020/12/12 05:05:04;;;;;;;13.53;7.67;;;3.10;99.90;;;;;;6216519;22;19997;-95
2020/12/12 05:07:30;;;;;;;14.30;7.57;;;3.10;99.90;;;;;;6216805;22;20003;-96
2020/12/12 05:09:56;;;;;;;14.73;8.47;;;3.10;99.90;;;;;;6215581;22;20016;-95
2020/12/12 05:12:22;;;;;;;12.87;7.40;;;3.10;99.90;;;;;;6216591;22;20024;-95
2020/12/12 05:14:52;;;;;;;16.30;8.03;;;3.10;99.90;;;;;;6216777;22;19997;-96
2020/12/12 05:17:19;;;;;;;14.20;8.23;;;3.10;99.90;;;;;;6216925;22;19989;-96
2020/12/12 05:19:49;;;;;;;15.77;8.50;;;3.10;99.90;;;;;;6216087;22;19997;-96
2020/12/12 05:22:16;;;;;;;13.87;8.20;;;3.10;99.90;;;;;;6216587;22;19997;-95
2020/12/12 05:24:42;;;;;;;14.60;8.30;;;3.20;99.90;;;;;;6216660;22;19997;-96
2020/12/12 05:27:08;;;;;;;15.87;8.80;;;3.10;99.90;;;;;;6215924;22;20024;-96
2020/12/12 05:29:34;;;;;;;13.63;8.27;;;3.10;99.90;;;;;;6215909;22;19996;-96
2020/12/12 05:32:01;;;;;;;15.77;8.23;;;3.10;99.90;;;;;;6216203;22;20016;-96
2020/12/12 05:34:27;;;;;;;14.10;8.23;;;3.10;99.90;;;;;;6216126;22;19989;-96
2020/12/12 05:36:54;;;;;;;14.33;8.77;;;3.10;99.90;;;;;;6215956;22;20052;-95
2020/12/12 05:39:20;;;;;;;17.40;8.27;;;3.10;99.90;;;;;;6215894;22;20015;-95
2020/12/12 05:41:48;;;;;;;15.70;9.03;;;3.00;99.90;;;;;;6215999;22;20009;-96
2020/12/12 05:44:16;;;;;;;15.57;8.63;;;3.10;99.90;;;;;;6216051;22;20000;-95
2020/12/12 05:46:44;;;;;;;15.07;8.10;;;3.10;99.90;;;;;;6215909;22;20004;-96
2020/12/12 05:49:10;;;;;;;16.27;8.53;;;3.10;99.90;;;;;;6215655;22;20005;-96
2020/12/12 05:51:37;;;;;;;14.33;7.90;;;3.10;99.90;;;;;;6216102;22;20016;-95
2020/12/12 05:54:03;;;;;;;15.27;8.17;;;3.10;99.90;;;;;;6215820;22;20020;-96
2020/12/12 05:56:31;;;;;;;15.27;8.23;;;3.10;99.90;;;;;;6215815;22;20019;-96
2020/12/12 05:58:57;;;;;;;14.97;7.77;;;3.10;99.90;;;;;;6215547;22;20221;-96
2020/12/12 06:01:28;;;;;;;13.57;8.07;;;3.10;99.90;;;;;;6212455;22;19993;-96
2020/12/12 06:04:17;;;;;;;14.47;8.07;;;3.10;99.90;;;;;;6215772;22;19996;-96
2020/12/12 06:06:47;;;;;;;14.50;7.47;;;3.10;99.90;;;;;;6215850;22;20000;-96
2020/12/12 06:09:16;;;;;;;13.17;7.17;;;3.20;99.90;;;;;;6215003;22;19996;-96
2020/12/12 08:28:53;;;;;;;10.90;6.10;;;3.70;99.90;;;;;;6282303;22;20062;-88
2020/12/12 08:31:20;;;;;;;10.50;6.10;;;3.80;99.90;;;;;;6280889;22;20007;-89
2020/12/12 08:34:14;;;;;;;10.30;5.93;;;3.80;99.90;;;;;;6255813;22;20003;-89
2020/12/12 08:36:58;;;;;;;10.73;5.73;;;3.90;99.90;;;;;;6186821;22;20011;-88
2020/12/12 08:40:10;;;;;;;9.00;5.40;;;3.90;99.90;;;;;;6280860;22;20011;-88
2020/12/12 08:43:05;;;;;;;11.73;5.60;;;3.90;99.90;;;;;;6272589;22;20007;-89
2020/12/12 08:45:32;;;;;;;10.20;5.60;;;3.90;99.90;;;;;;6278719;22;20046;-89
2020/12/12 08:50:58;;;;;;;9.03;5.03;;;4.00;99.90;;;;;;6307526;22;19995;-89
2020/12/12 08:53:39;;;;;;;9.73;5.23;;;4.10;99.90;;;;;;6280444;22;20033;-89
2020/12/12 08:56:15;;;;;;;12.17;4.90;;;4.00;99.90;;;;;;6279893;22;20914;-89
2020/12/12 08:58:50;;;;;;;5.87;3.60;;;4.10;99.90;;;;;;6278749;22;19999;-89
2020/12/12 09:01:20;;;;;;;7.57;3.90;;;4.20;99.90;;;;;;6279517;22;20410;-89
2020/12/12 09:04:03;;;;;;;8.63;4.10;;;4.10;99.90;;;;;;6275672;22;20039;-88
2020/12/12 09:06:41;;;;;;;9.73;3.88;;;4.20;99.90;;;;;;6275044;22;19999;-88
2020/12/12 09:09:27;;;;;;;7.03;4.00;;;4.30;99.90;;;;;;6279125;22;20005;-89
2020/12/12 09:11:53;;;;;;;7.73;3.97;;;4.30;99.90;;;;;;6276585;22;20021;-90
2020/12/12 09:14:33;;;;;;;7.73;3.40;;;4.30;99.90;;;;;;6278970;22;20003;-90
2020/12/12 09:17:09;;;;;;;6.17;3.30;;;4.30;99.90;;;;;;6302016;22;20019;-90
2020/12/12 09:19:56;;;;;;;6.97;3.50;;;4.30;99.90;;;;;;6281264;22;19999;-91
2020/12/12 09:22:22;;;;;;;5.40;3.20;;;4.30;99.90;;;;;;6280918;22;20003;-92
2020/12/12 09:24:49;;;;;;;8.70;3.93;;;4.40;99.90;;;;;;6282381;22;20009;-91
2020/12/12 09:27:16;;;;;;;5.93;3.53;;;4.40;99.90;;;;;;6282540;22;20027;-91
2020/12/12 09:29:41;;;;;;;6.03;3.47;;;4.40;99.90;;;;;;6281234;22;20039;-90
2020/12/12 09:32:11;;;;;;;6.40;3.80;;;4.40;99.90;;;;;;6308435;22;20006;-90
2020/12/12 09:34:37;;;;;;;6.77;3.37;;;4.50;99.90;;;;;;6280459;22;20052;-92
2020/12/12 09:37:04;;;;;;;7.80;3.50;;;4.50;99.90;;;;;;6281734;22;20033;-91
2020/12/12 09:39:29;;;;;;;4.87;2.97;;;4.50;99.90;;;;;;6282065;22;20007;-92
2020/12/12 09:41:57;;;;;;;5.53;3.07;;;4.60;99.90;;;;;;6280912;22;20026;-90
2020/12/12 09:44:23;;;;;;;5.30;2.93;;;4.70;99.90;;;;;;6281204;22;20007;-91
2020/12/12 09:46:49;;;;;;;6.70;3.67;;;4.70;99.90;;;;;;6281315;22;20011;-91
2020/12/12 09:49:15;;;;;;;5.23;3.03;;;4.70;99.90;;;;;;6281278;22;20010;-91
2020/12/12 09:51:40;;;;;;;5.17;2.57;;;4.80;99.90;;;;;;6282078;22;20007;-92
2020/12/12 09:54:06;;;;;;;5.90;2.60;;;4.80;99.90;;;;;;6282312;22;20319;-91
2020/12/12 09:56:32;;;;;;;4.67;2.57;;;4.90;99.90;;;;;;6282362;22;20011;-91
2020/12/12 09:58:57;;;;;;;4.37;2.23;;;4.90;99.90;;;;;;6285121;22;20003;-91
2020/12/12 10:01:23;;;;;;;6.03;3.30;;;4.90;99.90;;;;;;6289937;22;19992;-90
2020/12/12 10:03:49;;;;;;;5.57;2.87;;;4.90;99.90;;;;;;6287436;22;20048;-91
2020/12/12 10:06:14;;;;;;;4.33;2.40;;;5.00;99.90;;;;;;6290425;22;20072;-90
2020/12/12 10:08:40;;;;;;;5.60;2.30;;;5.00;99.90;;;;;;6292200;22;20003;-90
2020/12/12 10:11:07;;;;;;;9.50;2.33;;;5.10;99.90;;;;;;6318871;22;20003;-91
2020/12/12 10:13:32;;;;;;;6.77;1.87;;;5.20;99.90;;;;;;6293721;22;20053;-91
2020/12/12 10:15:58;;;;;;;4.63;2.10;;;5.30;99.90;;;;;;6290740;22;19999;-89
2020/12/12 10:18:24;;;;;;;4.00;2.00;;;5.30;99.90;;;;;;6286139;22;20045;-91
2020/12/12 10:20:49;;;;;;;6.80;2.20;;;5.30;99.90;;;;;;6281667;22;20010;-90
2020/12/12 10:23:15;;;;;;;7.23;2.10;;;5.40;99.90;;;;;;6281018;22;20261;-90
2020/12/12 10:25:42;;;;;;;4.37;1.90;;;5.40;99.90;;;;;;6280154;22;20049;-90
2020/12/12 10:28:09;;;;;;;5.60;2.23;;;5.40;99.90;;;;;;6279870;22;20058;-90
2020/12/12 10:30:35;;;;;;;4.10;2.07;;;5.50;99.90;;;;;;6308119;22;20090;-91
2020/12/12 10:33:01;;;;;;;3.97;2.00;;;5.50;99.90;;;;;;6279924;22;20057;-91
2020/12/12 10:35:28;;;;;;;4.20;1.80;;;5.60;99.90;;;;;;6279823;22;20342;-90
2020/12/12 10:37:55;;;;;;;4.87;2.20;;;5.50;99.90;;;;;;6276598;22;20006;-90
2020/12/12 10:40:33;;;;;;;4.97;2.00;;;5.60;99.90;;;;;;6278711;22;20003;-89
2020/12/12 10:43:01;;;;;;;3.97;1.90;;;5.50;99.90;;;;;;6278990;22;19995;-91
2020/12/12 10:45:27;;;;;;;6.00;2.23;;;5.60;99.90;;;;;;6278650;22;20095;-91
2020/12/12 10:47:53;;;;;;;5.33;2.30;;;5.60;99.90;;;;;;6280254;22;20035;-91
2020/12/12 10:50:18;;;;;;;5.20;2.03;;;5.70;99.90;;;;;;6280535;22;20027;-90
2020/12/12 10:52:44;;;;;;;4.33;2.10;;;5.70;99.90;;;;;;6279344;22;20337;-91
2020/12/12 10:55:10;;;;;;;3.57;1.80;;;5.70;99.90;;;;;;6278291;22;20057;-90
2020/12/12 10:57:36;;;;;;;3.77;1.90;;;5.70;99.90;;;;;;6305935;22;19995;-88
2020/12/12 11:00:04;;;;;;;3.43;1.90;;;5.70;99.90;;;;;;6281414;22;20083;-90
2020/12/12 11:02:30;;;;;;;4.10;1.97;;;5.70;99.90;;;;;;6281642;22;19995;-90
2020/12/12 11:04:56;;;;;;;6.50;1.90;;;5.80;99.90;;;;;;6280851;22;20000;-90
2020/12/12 11:07:22;;;;;;;4.20;2.20;;;5.80;99.90;;;;;;6308487;22;20006;-90
2020/12/12 11:09:48;;;;;;;4.60;2.70;;;6.00;99.90;;;;;;6242935;22;20312;-90
2020/12/12 11:12:14;;;;;;;6.97;2.07;;;6.00;99.90;;;;;;6190252;23;20104;-90
2020/12/12 11:14:47;;;;;;;3.87;1.83;;;6.10;99.90;;;;;;6156708;23;20091;-90
2020/12/12 11:17:13;;;;;;;4.20;2.30;;;6.00;99.90;;;;;;6173406;23;20028;-90
2020/12/12 11:19:38;;;;;;;4.40;1.90;;;6.10;99.90;;;;;;6190420;23;20004;-90
2020/12/12 11:22:06;;;;;;;6.17;2.07;;;6.10;99.90;;;;;;6191672;23;20005;-90
2020/12/12 11:24:32;;;;;;;8.70;2.10;;;6.20;99.90;;;;;;6190530;23;20047;-90
2020/12/12 11:26:58;;;;;;;3.83;2.10;;;6.10;99.90;;;;;;6194698;23;20001;-91
2020/12/12 11:29:24;;;;;;;3.77;1.80;;;6.10;99.90;;;;;;6195256;23;20032;-92
2020/12/12 11:31:52;;;;;;;3.37;1.70;;;6.10;99.90;;;;;;6192954;23;20005;-91
2020/12/12 11:37:09;;;;;;;3.90;1.90;;;6.10;99.90;;;;;;6217257;23;20008;-92
2020/12/12 11:42:41;;;;;;;6.23;1.87;;;6.20;99.90;;;;;;6174941;23;20001;-92
2020/12/12 11:47:41;;;;;;;5.87;2.00;;;6.30;99.90;;;;;;6218282;23;20382;-91
2020/12/12 11:50:08;;;;;;;4.43;2.10;;;6.30;99.90;;;;;;6188946;23;20365;-91
2020/12/12 11:52:45;;;;;;;3.03;1.90;;;6.40;99.90;;;;;;6189340;23;20000;-90
2020/12/12 11:55:11;;;;;;;4.17;2.27;;;6.40;99.90;;;;;;6189372;23;20513;-90
2020/12/12 11:57:36;;;;;;;4.53;2.20;;;6.40;99.90;;;;;;6189582;23;20004;-91
2020/12/12 12:00:29;;;;;;;11.37;3.27;;;6.40;99.90;;;;;;6189291;23;20031;-91
2020/12/12 12:03:32;;;;;;;4.40;2.60;;;6.40;99.90;;;;;;6189964;23;20079;-91
2020/12/12 12:05:57;;;;;;;;;;;6.40;99.90;;;;;;6189561;23;20087;-92
2020/12/12 12:11:15;;;;;;;4.40;2.33;;;6.40;99.90;;;;;;6225570;23;20298;-91
2020/12/12 12:13:35;;;;;;;4.10;1.83;;;6.50;99.90;;;;;;6212405;23;20012;-90
2020/12/12 12:16:20;;;;;;;3.30;1.83;;;6.50;99.90;;;;;;6189024;23;20008;-91
2020/12/12 12:18:47;;;;;;;3.97;2.07;;;6.50;99.90;;;;;;6189403;23;20082;-91
2020/12/12 12:21:13;;;;;;;4.60;2.20;;;6.50;99.90;;;;;;6189314;23;20004;-91
2020/12/12 12:23:46;;;;;;;5.40;2.70;;;6.50;99.90;;;;;;6192107;23;20087;-91
2020/12/12 12:26:14;;;;;;;4.80;2.40;;;6.40;99.90;;;;;;6191641;23;20416;-91
2020/12/12 12:28:43;;;;;;;5.33;2.30;;;6.40;99.90;;;;;;6191314;23;20024;-92
2020/12/12 12:31:19;;;;;;;6.57;2.80;;;6.40;99.90;;;;;;6189821;23;20000;-92
2020/12/12 12:33:45;;;;;;;5.70;2.50;;;6.30;99.90;;;;;;6189963;23;20027;-91
2020/12/12 12:36:10;;;;;;;6.33;2.27;;;6.40;99.90;;;;;;6190557;23;20008;-89
2020/12/12 12:38:39;;;;;;;4.80;2.57;;;6.40;99.90;;;;;;6195325;23;19997;-91
2020/12/12 12:41:05;;;;;;;5.27;3.03;;;6.30;99.90;;;;;;6190337;23;20032;-93
2020/12/12 12:43:35;;;;;;;6.97;2.63;;;6.30;99.90;;;;;;6190266;23;20001;-91
2020/12/12 12:46:23;;;;;;;4.40;2.70;;;6.40;99.90;;;;;;6188571;23;20047;-91
2020/12/12 12:48:49;;;;;;;7.67;2.40;;;6.40;99.90;;;;;;6190241;23;20071;-91
2020/12/12 12:51:15;;;;;;;7.73;2.70;;;6.50;99.90;;;;;;6190610;23;20008;-91
2020/12/12 12:53:41;;;;;;;4.17;2.30;;;6.40;99.90;;;;;;6192449;23;20432;-91
2020/12/12 12:56:07;;;;;;;7.37;2.43;;;6.40;99.90;;;;;;6195171;23;20042;-92
2020/12/12 12:58:50;;;;;;;5.33;2.53;;;6.50;99.90;;;;;;6196264;23;20000;-91
2020/12/12 13:01:23;;;;;;;7.27;2.60;;;6.40;99.90;;;;;;6194391;23;20024;-91
2020/12/12 13:03:50;;;;;;;3.83;2.20;;;6.40;99.90;;;;;;6193456;23;20001;-91
2020/12/12 13:06:19;;;;;;;4.20;2.37;;;6.50;99.90;;;;;;6191968;23;20009;-91
2020/12/12 13:08:45;;;;;;;5.30;2.23;;;6.40;99.90;;;;;;6193145;23;20063;-91
2020/12/12 13:11:14;;;;;;;6.50;2.60;;;6.50;99.90;;;;;;6192354;23;20005;-92
2020/12/12 13:13:40;;;;;;;5.57;2.60;;;6.40;99.90;;;;;;6192859;23;20000;-91
2020/12/12 13:16:05;;;;;;;7.43;2.57;;;6.40;99.90;;;;;;6191064;23;20059;-91
2020/12/12 13:21:42;;;;;;;5.43;2.53;;;6.50;99.90;;;;;;6184548;23;20595;-91
2020/12/12 13:24:07;;;;;;;7.93;2.00;;;6.50;99.90;;;;;;6190623;23;20000;-91
2020/12/12 13:26:33;;;;;;;5.53;2.37;;;6.50;99.90;;;;;;6191322;23;20015;-93
2020/12/12 13:31:43;;;;;;;5.37;2.57;;;6.50;99.90;;;;;;6218259;23;20095;-90
2020/12/12 13:34:10;;;;;;;3.67;2.10;;;6.50;99.90;;;;;;6191518;23;20001;-91
2020/12/12 13:36:37;;;;;;;4.90;2.17;;;6.50;99.90;;;;;;6192879;23;20036;-91
2020/12/12 13:39:03;;;;;;;5.73;2.37;;;6.50;99.90;;;;;;6192006;23;20009;-93
2020/12/12 13:41:32;;;;;;;6.30;2.40;;;6.40;99.90;;;;;;6191207;23;20091;-91
2020/12/12 13:43:58;;;;;;;7.37;2.57;;;6.40;99.90;;;;;;6191645;23;20004;-91
2020/12/12 13:46:24;;;;;;;8.03;2.77;;;6.40;99.90;;;;;;6192098;23;20040;-91
2020/12/12 13:48:50;;;;;;;5.67;2.40;;;6.30;99.90;;;;;;6193782;23;20015;-89
2020/12/12 13:51:16;;;;;;;5.97;3.03;;;6.40;99.90;;;;;;6191359;23;20004;-89
2020/12/12 13:53:42;;;;;;;5.17;2.30;;;6.40;99.90;;;;;;6191684;23;20012;-89
2020/12/12 13:56:08;;;;;;;6.20;2.57;;;6.40;99.90;;;;;;6191333;23;20005;-89
2020/12/12 13:58:43;;;;;;;5.77;2.40;;;6.50;99.90;;;;;;6191814;23;20000;-90
2020/12/12 14:01:11;;;;;;;5.93;2.20;;;6.50;99.90;;;;;;6190367;23;20075;-90
2020/12/12 14:03:50;;;;;;;5.10;2.40;;;6.60;99.90;;;;;;6168663;23;20066;-90
2020/12/12 14:06:17;;;;;;;4.80;2.20;;;6.50;99.90;;;;;;6198121;22;20064;-86
2020/12/12 14:09:03;;;;;;;7.73;2.70;;;6.50;99.90;;;;;;6179457;23;20354;-86
2020/12/12 14:22:45;;;;;;;5.43;2.93;;;6.40;99.90;;;;;;6209878;23;20497;-85
2020/12/12 14:25:11;;;;;;;6.17;2.70;;;6.50;99.90;;;;;;6210287;23;20000;-86
2020/12/12 14:30:39;;;;;;;6.03;2.70;;;6.40;99.90;;;;;;6161215;23;20000;-86
2020/12/12 14:33:05;;;;;;;4.97;2.23;;;6.40;99.90;;;;;;6209525;23;20010;-87
2020/12/12 14:35:30;;;;;;;5.37;2.50;;;6.40;99.90;;;;;;6208565;23;20095;-86
2020/12/12 14:37:56;;;;;;;5.13;2.43;;;6.30;99.90;;;;;;6207092;23;20367;-86
2020/12/12 14:40:22;;;;;;;4.47;2.20;;;6.40;99.90;;;;;;6208815;23;20453;-85
2020/12/12 14:42:47;;;;;;;5.63;2.60;;;6.40;99.90;;;;;;6211038;23;19997;-85
2020/12/12 14:45:13;;;;;;;4.23;2.20;;;6.40;99.90;;;;;;6209661;23;20009;-86
2020/12/12 14:47:39;;;;;;;6.03;1.90;;;6.40;99.90;;;;;;6209865;23;20078;-85
2020/12/12 14:50:04;;;;;;;5.90;2.53;;;6.40;99.90;;;;;;6211070;23;20001;-85
2020/12/12 14:52:32;;;;;;;5.87;2.30;;;6.30;99.90;;;;;;6209413;23;20015;-85
2020/12/12 14:55:00;;;;;;;4.07;2.20;;;6.30;99.90;;;;;;6209846;23;20424;-85
2020/12/12 14:57:27;;;;;;;4.63;2.40;;;6.40;99.90;;;;;;6210155;23;20016;-85
2020/12/12 14:59:52;;;;;;;4.63;2.40;;;6.30;99.90;;;;;;6208773;23;20009;-84
2020/12/12 15:02:18;;;;;;;9.40;3.53;;;6.30;99.90;;;;;;6207688;23;20331;-86
2020/12/12 15:04:45;;;;;;;5.67;2.47;;;6.30;99.90;;;;;;6213899;23;20024;-86
2020/12/12 15:07:11;;;;;;;5.50;2.53;;;6.30;99.90;;;;;;6213184;23;20359;-87
2020/12/12 15:09:37;;;;;;;9.70;3.03;;;6.20;99.90;;;;;;6209479;23;20335;-86
2020/12/12 15:12:03;;;;;;;6.47;2.57;;;6.20;99.90;;;;;;6208997;23;20039;-86
2020/12/12 15:14:28;;;;;;;5.33;2.10;;;6.20;99.90;;;;;;6209093;23;20047;-85
2020/12/12 15:16:54;;;;;;;4.93;2.50;;;6.20;99.90;;;;;;6210226;23;20007;-86
2020/12/12 15:19:20;;;;;;;7.13;2.73;;;6.20;99.90;;;;;;6208251;23;20519;-87
2020/12/12 15:21:45;;;;;;;5.40;2.30;;;6.20;99.90;;;;;;6209318;23;20000;-86
2020/12/12 15:24:11;;;;;;;6.57;2.70;;;6.20;99.90;;;;;;6209315;23;20000;-88
2020/12/12 15:26:38;;;;;;;7.07;2.80;;;6.20;99.90;;;;;;6208614;23;20005;-88
2020/12/12 15:29:05;;;;;;;5.90;2.63;;;6.20;99.90;;;;;;6208014;23;20009;-88
2020/12/12 15:31:34;;;;;;;4.37;2.53;;;6.20;99.90;;;;;;6209686;23;20004;-86
2020/12/12 15:34:02;;;;;;;5.53;2.40;;;6.20;99.90;;;;;;6210202;23;20005;-88
2020/12/12 15:36:29;;;;;;;7.33;2.53;;;6.10;99.90;;;;;;6209087;23;20043;-88
2020/12/12 15:38:56;;;;;;;5.80;2.70;;;6.20;99.90;;;;;;6214053;23;20039;-87
2020/12/12 15:41:22;;;;;;;5.50;2.97;;;6.20;99.90;;;;;;6212546;23;20021;-88
2020/12/12 15:43:52;;;;;;;6.00;2.90;;;6.20;99.90;;;;;;6209831;23;20013;-87
2020/12/12 15:46:26;;;;;;;8.07;3.50;;;6.20;99.90;;;;;;6210857;23;20017;-87